Time;durP1;ratioP1;P1;durP2;ratioP2;P2;SDS_P1;SDS_P2;PMS_P1;PMS_P2;Temp;Humidity;BMP_temperature;BMP_pressure;BME280_temperature;BME280_humidity;BME280_pressure;Samples;Min_cycle;Max_cycle;Signal;HPM_P1;HPM_P2
2023/10/28 00:02:24;;;;;;;8.18;2.08;;;;;;;-143.21;58.50;70815.19;4978025;28;20221;-79
2023/10/28 00:04:52;;;;;;;5.90;2.17;;;;;;;-143.21;59.07;70833.03;4971941;28;20300;-78
2023/10/28 00:07:19;;;;;;;3.33;2.00;;;;;;;-143.21;58.84;70833.03;4970871;28;20317;-81
2023/10/28 00:09:45;;;;;;;3.95;2.00;;;;;;;-143.21;58.72;70831.03;4970010;28;20230;-81
2023/10/28 00:12:15;;;;;;;5.18;1.80;;;;;;;-143.21;59.08;70833.03;4987795;28;20235;-81
2023/10/28 00:14:42;;;;;;;3.85;2.20;;;;;;;-143.21;59.06;70844.91;4981407;28;20220;-82
2023/10/28 00:17:09;;;;;;;5.55;1.95;;;;;;;-143.21;59.19;70844.91;4983293;28;20208;-83
2023/10/28 00:19:38;;;;;;;7.00;2.30;;;;;;;-143.21;59.79;70856.81;4990201;28;20828;-82
2023/10/28 00:22:05;;;;;;;9.00;2.20;;;;;;;-143.21;59.87;70860.78;4980100;28;20208;-82
2023/10/28 00:24:32;;;;;;;5.57;2.40;;;;;;;-143.21;60.08;70860.78;4975399;28;20275;-81
2023/10/28 00:26:58;;;;;;;5.38;2.22;;;;;;;-143.21;59.92;70854.84;4986554;28;20216;-81
2023/10/28 00:29:25;;;;;;;7.10;2.08;;;;;;;-143.21;60.30;70868.72;4973756;28;20208;-83
2023/10/28 00:31:52;;;;;;;9.52;2.47;;;;;;;-143.21;60.53;70866.72;4974567;28;20217;-82
2023/10/28 00:34:19;;;;;;;3.95;2.10;;;;;;;-143.21;61.08;70884.56;4977947;28;20220;-81
2023/10/28 00:36:47;;;;;;;5.65;2.53;;;;;;;-143.21;61.42;70894.47;4978909;28;20230;-80
2023/10/28 00:39:14;;;;;;;4.53;2.53;;;;;;;-143.21;61.49;70894.47;4975370;28;20212;-81
2023/10/28 00:41:41;;;;;;;6.63;2.60;;;;;;;-143.21;61.66;70904.38;4980305;28;20207;-81
2023/10/28 00:44:09;;;;;;;9.48;2.60;;;;;;;-143.21;62.07;70914.31;4970589;28;20212;-80
2023/10/28 00:46:36;;;;;;;4.88;2.10;;;;;;;-143.21;61.93;70912.31;4976436;28;20209;-80
2023/10/28 00:49:03;;;;;;;6.25;2.67;;;;;;;-143.21;62.29;70926.19;4971553;28;20215;-80
2023/10/28 00:51:31;;;;;;;8.90;2.53;;;;;;;-143.21;61.63;70920.25;4976047;28;20219;-80
2023/10/28 00:54:00;;;;;;;5.35;1.75;;;;;;;-143.21;61.46;70912.31;4969749;28;20232;-79
2023/10/28 00:56:27;;;;;;;10.68;2.20;;;;;;;-143.21;61.44;70902.41;4974667;28;20208;-80
2023/10/28 00:58:54;;;;;;;7.55;2.10;;;;;;;-143.21;61.70;70900.41;4973498;28;20227;-80
2023/10/28 01:01:21;;;;;;;7.20;2.40;;;;;;;-143.21;61.65;70904.38;4971830;28;20216;-82
2023/10/28 01:03:48;;;;;;;6.40;2.40;;;;;;;-143.21;61.76;70900.41;4973177;28;20209;-80
2023/10/28 01:06:16;;;;;;;7.45;2.42;;;;;;;-143.21;61.93;70896.47;4974449;28;20204;-81
2023/10/28 01:08:43;;;;;;;9.15;2.33;;;;;;;-143.21;61.88;70892.50;4974650;28;20225;-81
2023/10/28 01:11:12;;;;;;;7.72;2.17;;;;;;;-143.21;61.94;70892.50;4976328;28;20205;-80
2023/10/28 01:13:39;;;;;;;5.30;1.90;;;;;;;-143.21;61.84;70894.47;4973912;28;20348;-80
2023/10/28 01:16:08;;;;;;;6.63;2.20;;;;;;;-143.21;62.11;70888.53;4966648;28;20209;-79
2023/10/28 01:18:35;;;;;;;6.38;2.60;;;;;;;-143.21;62.02;70892.50;4975291;28;20215;-80
2023/10/28 01:21:09;;;;;;;5.25;2.03;;;;;;;-143.21;61.71;70882.59;4968856;28;20246;-79
2023/10/28 01:23:36;;;;;;;6.03;2.10;;;;;;;-143.21;61.65;70896.47;4969014;28;20205;-79
2023/10/28 01:26:04;;;;;;;4.85;1.90;;;;;;;-143.21;61.72;70888.53;4975282;28;20197;-80
2023/10/28 01:28:30;;;;;;;4.97;1.85;;;;;;;-143.21;61.48;70882.59;4969972;28;20268;-80
2023/10/28 01:30:59;;;;;;;6.05;2.40;;;;;;;-143.21;61.66;70886.53;4969589;28;20233;-80
2023/10/28 01:33:26;;;;;;;7.80;2.40;;;;;;;-143.21;61.75;70890.50;4981294;28;20315;-80
2023/10/28 01:35:54;;;;;;;4.95;2.33;;;;;;;-143.21;61.67;70890.50;4973682;28;20204;-79
2023/10/28 01:38:23;;;;;;;8.57;2.45;;;;;;;-143.21;61.33;70884.56;4972569;28;20197;-79
2023/10/28 01:40:50;;;;;;;5.35;2.47;;;;;;;-143.21;61.35;70882.59;4970826;28;20263;-80
2023/10/28 01:43:17;;;;;;;9.52;2.38;;;;;;;-143.21;61.25;70880.59;4975987;28;20204;-80
2023/10/28 01:45:44;;;;;;;4.70;1.92;;;;;;;-143.21;61.39;70888.53;4972041;28;20216;-81
2023/10/28 01:48:10;;;;;;;7.32;1.92;;;;;;;-143.21;61.10;70890.50;4975719;28;20209;-79
2023/10/28 01:50:37;;;;;;;8.10;2.45;;;;;;;-143.21;60.94;70874.66;4967083;28;20204;-79
2023/10/28 01:53:04;;;;;;;8.18;2.40;;;;;;;-143.21;60.75;70878.63;4968051;28;20225;-83
2023/10/28 01:55:33;;;;;;;5.40;2.10;;;;;;;-143.21;60.73;70880.59;4972215;28;20267;-82
2023/10/28 01:58:00;;;;;;;4.47;1.73;;;;;;;-143.21;60.72;70884.56;4975113;28;20255;-82
2023/10/28 02:00:30;;;;;;;5.45;1.75;;;;;;;-143.21;60.29;70898.44;4974403;28;20218;-84
2023/10/28 02:02:57;;;;;;;5.57;1.95;;;;;;;-143.21;60.17;70890.50;4974798;28;20208;-81
2023/10/28 02:05:25;;;;;;;5.30;1.85;;;;;;;-143.21;60.15;70886.53;4972719;28;20211;-82
2023/10/28 02:07:51;;;;;;;4.68;1.88;;;;;;;-143.21;60.20;70890.50;4970893;28;20200;-82
2023/10/28 02:10:18;;;;;;;6.97;2.03;;;;;;;-143.21;60.15;70892.50;4978697;28;20204;-82
2023/10/28 02:12:48;;;;;;;4.90;2.13;;;;;;;-143.21;59.92;70896.47;4971653;28;20204;-82
2023/10/28 02:15:15;;;;;;;2.20;1.60;;;;;;;-143.21;60.14;70904.38;4972354;28;20207;-82
2023/10/28 02:17:42;;;;;;;5.88;1.88;;;;;;;-143.21;59.74;70904.38;4973390;28;20236;-82
2023/10/28 02:20:10;;;;;;;5.55;2.05;;;;;;;-143.21;59.81;70916.28;4971220;28;20208;-83
2023/10/28 02:22:36;;;;;;;6.07;2.15;;;;;;;-143.21;59.61;70908.34;4968714;28;20208;-82
2023/10/28 02:25:04;;;;;;;4.43;1.60;;;;;;;-143.21;59.17;70896.47;4963163;28;20218;-83
2023/10/28 02:27:31;;;;;;;3.53;1.63;;;;;;;-143.21;59.21;70910.34;4964588;28;20212;-83
2023/10/28 02:29:59;;;;;;;5.78;2.33;;;;;;;-143.21;59.66;70920.25;4963412;28;20241;-82
2023/10/28 02:32:26;;;;;;;3.35;1.73;;;;;;;-143.21;59.60;70920.25;4971484;28;20213;-82
2023/10/28 02:34:53;;;;;;;6.97;2.60;;;;;;;-143.21;59.68;70924.22;4977589;28;20308;-82
2023/10/28 02:37:20;;;;;;;11.40;3.38;;;;;;;-143.21;60.65;70924.22;4977137;28;20299;-82
2023/10/28 02:39:47;;;;;;;7.80;3.15;;;;;;;-143.21;61.06;70924.22;4969462;28;20696;-82
2023/10/28 02:42:14;;;;;;;10.02;3.40;;;;;;;-143.21;61.62;70942.06;4975583;28;20629;-82
2023/10/28 02:44:40;;;;;;;12.38;3.85;;;;;;;-143.21;61.99;70955.94;4973575;28;20204;-82
2023/10/28 02:47:09;;;;;;;8.98;3.85;;;;;;;-143.21;62.80;70969.81;4978030;28;20216;-82
2023/10/28 02:49:37;;;;;;;9.80;3.20;;;;;;;-143.21;62.99;70975.75;4979719;28;20634;-82
2023/10/28 02:52:04;;;;;;;10.63;3.75;;;;;;;-143.21;63.29;70985.66;4975299;28;20239;-81
2023/10/28 02:54:31;;;;;;;7.43;3.70;;;;;;;-143.21;63.70;71001.53;4962161;28;20746;-82
2023/10/28 02:56:58;;;;;;;7.28;3.60;;;;;;;-143.21;64.25;71023.34;4989322;28;20211;-82
2023/10/28 02:59:25;;;;;;;7.72;3.50;;;;;;;-143.21;64.43;71029.28;4974384;28;20270;-82
2023/10/28 03:01:53;;;;;;;8.45;3.60;;;;;;;-143.21;64.79;71037.22;4980877;28;20219;-81
2023/10/28 03:04:21;;;;;;;7.47;4.07;;;;;;;-143.21;65.49;71051.09;4982348;28;20208;-82
2023/10/28 03:06:48;;;;;;;7.53;3.35;;;;;;;-143.21;65.71;71070.91;4978122;28;20204;-82
2023/10/28 03:09:14;;;;;;;9.68;3.60;;;;;;;-143.21;66.27;71082.81;4973383;28;20275;-82
2023/10/28 03:11:41;;;;;;;7.88;3.83;;;;;;;-143.21;66.56;71098.66;4988583;28;20262;-82
2023/10/28 03:14:08;;;;;;;13.93;3.80;;;;;;;-143.21;66.88;71102.63;4980903;28;20228;-83
2023/10/28 03:16:35;;;;;;;7.57;3.38;;;;;;;-143.21;67.19;71100.66;4978720;28;20204;-83
2023/10/28 03:19:02;;;;;;;10.18;4.00;;;;;;;-143.21;67.44;71112.53;4982405;28;20247;-82
2023/10/28 03:21:30;;;;;;;6.10;3.38;;;;;;;-143.21;67.72;71122.44;4974923;28;20655;-83
2023/10/28 03:23:58;;;;;;;6.50;3.55;;;;;;;-143.21;68.03;71132.38;4978707;28;20220;-82
2023/10/28 03:26:25;;;;;;;9.00;4.07;;;;;;;-143.21;68.30;71138.31;4976343;28;20205;-81
2023/10/28 03:28:52;;;;;;;7.47;4.10;;;;;;;-143.21;68.51;71150.22;4982953;28;20200;-82
2023/10/28 03:31:19;;;;;;;9.80;3.93;;;;;;;-143.21;68.65;71150.22;4975779;28;20348;-82
2023/10/28 03:33:46;;;;;;;8.70;3.33;;;;;;;-143.21;68.98;71160.13;4980789;28;20235;-82
2023/10/28 03:36:13;;;;;;;15.80;4.65;;;;;;;-143.21;69.11;71160.13;4972535;28;20209;-82
2023/10/28 03:38:41;;;;;;;5.23;3.37;;;;;;;-143.21;69.11;71164.09;4984392;28;20208;-82
2023/10/28 03:41:08;;;;;;;7.77;4.50;;;;;;;-143.21;69.19;71170.03;4971722;28;20205;-82
2023/10/28 03:43:35;;;;;;;9.03;4.23;;;;;;;-143.21;69.44;71172.00;4974263;28;20205;-82
2023/10/28 03:46:03;;;;;;;10.40;4.20;;;;;;;-143.21;69.59;71179.94;4967534;28;20209;-81
2023/10/28 03:48:30;;;;;;;11.98;4.57;;;;;;;-143.21;69.81;71189.84;4983810;28;20310;-80
2023/10/28 03:50:58;;;;;;;8.90;4.10;;;;;;;-143.21;69.87;71185.88;4968619;28;20582;-81
2023/10/28 03:53:25;;;;;;;13.63;4.57;;;;;;;-143.21;70.19;71191.84;4965197;28;20283;-81
2023/10/28 03:55:53;;;;;;;7.63;4.20;;;;;;;-143.21;70.33;71203.72;4965002;28;20215;-81
2023/10/28 03:58:20;;;;;;;9.27;4.80;;;;;;;-143.21;70.52;71209.69;4959977;28;20209;-80
2023/10/28 04:00:50;;;;;;;10.77;3.97;;;;;;;-143.21;70.84;71221.56;4969146;28;20241;-81
2023/10/28 04:03:17;;;;;;;17.37;4.80;;;;;;;-143.21;71.39;71237.44;4973161;28;20200;-80
2023/10/28 04:05:43;;;;;;;9.17;4.10;;;;;;;-143.21;71.41;71237.44;4959107;28;20268;-81
2023/10/28 04:08:10;;;;;;;10.33;4.70;;;;;;;-143.21;71.50;71241.41;4968623;28;20210;-82
2023/10/28 04:10:37;;;;;;;7.27;4.30;;;;;;;-143.21;71.57;71247.34;4976555;28;20233;-82
2023/10/28 04:13:05;;;;;;;7.93;4.33;;;;;;;-143.21;71.66;71249.34;4970074;28;20282;-81
2023/10/28 04:15:33;;;;;;;10.73;4.20;;;;;;;-143.21;71.64;71247.34;4972435;28;20308;-81
2023/10/28 04:17:59;;;;;;;12.13;4.63;;;;;;;-143.21;71.89;71259.25;4975294;28;20213;-82
2023/10/28 04:20:26;;;;;;;10.77;4.30;;;;;;;-143.21;72.04;71261.22;4981391;28;20192;-81
2023/10/28 04:22:53;;;;;;;10.10;4.40;;;;;;;-143.21;72.23;71269.16;4975466;28;20212;-82
2023/10/28 04:25:20;;;;;;;10.60;4.00;;;;;;;-143.21;72.25;71269.16;4982491;28;20227;-82
2023/10/28 04:27:50;;;;;;;8.37;4.10;;;;;;;-143.21;72.41;71273.13;4976232;28;20208;-82
2023/10/28 04:30:19;;;;;;;9.53;3.90;;;;;;;-143.21;72.73;71277.09;4966734;28;20420;-82
2023/10/28 04:32:48;;;;;;;11.20;3.87;;;;;;;-143.21;72.59;71283.03;4978225;28;20232;-82
2023/10/28 04:35:15;;;;;;;10.07;4.27;;;;;;;-143.21;72.80;71279.06;4978805;28;20231;-82
2023/10/28 04:37:43;;;;;;;7.17;4.00;;;;;;;-143.21;72.90;71283.03;4971682;28;20263;-82
2023/10/28 04:40:11;;;;;;;13.87;4.97;;;;;;;-143.21;72.70;71283.03;4986903;28;20353;-82
2023/10/28 04:42:38;;;;;;;12.83;4.97;;;;;;;-143.21;72.64;71281.06;4975547;28;20204;-82
2023/10/28 04:45:06;;;;;;;12.47;5.20;;;;;;;-143.21;72.76;71294.94;4973172;28;20208;-81
2023/10/28 04:47:35;;;;;;;15.43;4.50;;;;;;;-143.21;73.37;71304.84;4983117;28;20259;-82
2023/10/28 04:50:02;;;;;;;9.47;4.37;;;;;;;-143.21;73.52;71304.84;4970028;28;20212;-81
2023/10/28 04:52:30;;;;;;;10.63;4.50;;;;;;;-143.21;73.35;71308.81;4970647;28;20204;-81
2023/10/28 04:54:58;;;;;;;12.27;5.00;;;;;;;-143.21;73.36;71316.75;4974027;28;20308;-81
2023/10/28 04:57:27;;;;;;;14.17;4.87;;;;;;;-143.21;73.60;71324.66;4979391;28;20215;-81
2023/10/28 04:59:54;;;;;;;9.23;4.20;;;;;;;-143.21;74.25;71332.59;4972171;28;20220;-81
2023/10/28 05:02:21;;;;;;;9.93;5.00;;;;;;;-143.21;73.99;71330.63;4975745;28;20213;-81
2023/10/28 05:04:50;;;;;;;12.17;4.93;;;;;;;-143.21;73.85;71330.63;4968576;28;20200;-82
2023/10/28 05:07:16;;;;;;;14.97;5.17;;;;;;;-143.21;74.08;71328.63;4968726;28;20204;-81
2023/10/28 05:09:43;;;;;;;13.00;5.00;;;;;;;-143.21;73.94;71334.59;4972156;28;20212;-82
2023/10/28 05:12:11;;;;;;;19.53;5.20;;;;;;;-143.21;74.33;71352.44;4968874;28;20198;-81
2023/10/28 05:14:37;;;;;;;15.47;5.80;;;;;;;-143.21;74.41;71352.44;4965901;28;20706;-81
2023/10/28 05:17:05;;;;;;;18.63;5.73;;;;;;;-143.21;74.21;71358.38;4967984;28;20197;-81
2023/10/28 05:19:32;;;;;;;13.93;5.60;;;;;;;-143.21;74.46;71374.22;4973851;28;20208;-81
2023/10/28 05:22:03;;;;;;;14.00;6.07;;;;;;;-143.21;74.88;71382.16;4964247;28;20558;-81
2023/10/28 05:24:31;;;;;;;18.60;5.93;;;;;;;-143.21;75.14;71386.13;4964211;28;20825;-80
2023/10/28 05:26:58;;;;;;;17.50;6.30;;;;;;;-143.21;75.29;71386.13;4972387;28;20205;-81
2023/10/28 05:29:25;;;;;;;14.97;6.80;;;;;;;-143.21;75.05;71388.09;4967963;28;20201;-82
2023/10/28 05:31:56;;;;;;;19.47;6.80;;;;;;;-143.21;75.24;71378.19;4972004;28;20205;-83
2023/10/28 05:34:23;;;;;;;18.13;7.17;;;;;;;-143.21;75.14;71386.13;4975821;28;20591;-82
2023/10/28 05:36:50;;;;;;;14.20;6.30;;;;;;;-143.21;74.95;71396.03;4968544;28;20679;-81
2023/10/28 05:39:27;;;;;;;17.70;6.97;;;;;;;-143.21;75.41;71409.91;4963096;28;20201;-80
2023/10/28 05:41:54;;;;;;;20.07;7.50;;;;;;;-143.21;75.56;71419.84;4979669;28;20191;-80
2023/10/28 05:44:21;;;;;;;15.40;7.47;;;;;;;-143.21;75.35;71409.91;4972594;28;20197;-82
2023/10/28 05:46:48;;;;;;;17.87;7.87;;;;;;;-143.21;75.22;71405.94;4969153;28;20224;-83
2023/10/28 05:49:15;;;;;;;20.43;8.37;;;;;;;-143.21;75.48;71402.00;4965839;28;20204;-82
2023/10/28 05:51:43;;;;;;;16.77;8.17;;;;;;;-143.21;75.35;71415.88;4969399;28;20200;-82
2023/10/28 05:54:11;;;;;;;18.27;10.73;;;;;;;-143.21;75.30;71415.88;4970546;28;20627;-81
2023/10/28 05:56:42;;;;;;;18.77;10.13;;;;;;;-143.21;75.30;71411.91;4977719;28;20662;-81
2023/10/28 05:59:09;;;;;;;17.27;9.73;;;;;;;-143.21;75.43;71417.84;4968637;28;20217;-82
2023/10/28 06:01:36;;;;;;;18.60;10.13;;;;;;;-143.21;75.74;71425.78;4972932;28;20670;-82
2023/10/28 06:04:03;;;;;;;22.17;10.67;;;;;;;-143.21;75.60;71431.72;4973534;28;20269;-81
2023/10/28 06:06:30;;;;;;;17.90;10.07;;;;;;;-143.21;76.06;71429.75;4974792;28;20668;-81
2023/10/28 06:09:05;;;;;;;29.63;13.90;;;;;;;-143.21;76.38;71439.66;4967622;28;20267;-81
2023/10/28 06:11:32;;;;;;;32.07;14.20;;;;;;;-143.21;75.66;71423.78;4972349;28;20207;-81
2023/10/28 06:14:01;;;;;;;23.77;12.60;;;;;;;-143.21;75.59;71407.94;4965460;28;20206;-80
2023/10/28 06:16:28;;;;;;;20.93;12.93;;;;;;;-143.21;75.35;71407.94;4975124;28;20210;-81
2023/10/28 06:18:55;;;;;;;20.50;12.63;;;;;;;-143.21;75.53;71411.91;4967981;28;20205;-81
2023/10/28 06:21:22;;;;;;;23.87;10.67;;;;;;;-143.21;75.27;71409.91;4963924;28;20213;-82
2023/10/28 06:23:49;;;;;;;28.13;11.70;;;;;;;-143.21;75.22;71407.94;4967131;28;20722;-82
2023/10/28 06:26:15;;;;;;;28.13;11.07;;;;;;;-143.21;75.40;71407.94;4964059;28;20206;-82
2023/10/28 06:28:44;;;;;;;22.60;10.40;;;;;;;-143.21;74.92;71398.03;4968263;28;20220;-81
2023/10/28 06:31:14;;;;;;;25.20;11.20;;;;;;;-143.21;74.01;71388.09;4970844;28;20291;-81
2023/10/28 06:33:41;;;;;;;25.90;10.10;;;;;;;-143.21;73.99;71384.16;4976661;28;20295;-81
2023/10/28 06:36:09;;;;;;;21.63;10.00;;;;;;;-143.21;73.76;71392.06;4962895;28;20311;-81
2023/10/28 06:38:36;;;;;;;22.87;8.70;;;;;;;-143.21;74.24;71400.00;4969582;28;20227;-82
2023/10/28 06:41:03;;;;;;;15.07;6.53;;;;;;;-143.21;74.00;71388.09;4970762;28;20204;-82
2023/10/28 06:43:30;;;;;;;14.50;6.97;;;;;;;-143.21;73.50;71394.06;4968502;28;20216;-81
2023/10/28 06:45:58;;;;;;;14.67;6.23;;;;;;;-143.21;72.86;71382.16;4976674;28;20208;-82
2023/10/28 06:48:26;;;;;;;16.13;6.43;;;;;;;-143.21;72.82;71372.25;4969285;28;20203;-82
2023/10/28 06:50:53;;;;;;;14.60;6.30;;;;;;;-143.21;72.37;71372.25;4974171;28;20205;-82
2023/10/28 06:53:21;;;;;;;9.93;5.77;;;;;;;-143.21;71.77;71372.25;4975386;28;20209;-82
2023/10/28 06:55:48;;;;;;;14.80;6.50;;;;;;;-143.21;71.76;71376.22;4968656;28;20661;-82
2023/10/28 06:58:18;;;;;;;12.60;6.30;;;;;;;-143.21;71.86;71368.28;4968935;28;20371;-83
2023/10/28 07:00:46;;;;;;;16.00;6.35;;;;;;;-143.21;71.40;71366.31;4966725;28;20205;-82
2023/10/28 07:03:14;;;;;;;10.67;5.80;;;;;;;-143.21;71.02;71354.41;4976111;28;20204;-82
2023/10/28 07:05:45;;;;;;;13.73;6.00;;;;;;;-143.21;70.47;71342.50;4970368;28;20304;-82
2023/10/28 07:08:22;;;;;;;17.63;7.00;;;;;;;-143.21;70.20;71338.53;4974098;28;20208;-82
2023/10/28 07:10:52;;;;;;;12.73;6.60;;;;;;;-143.21;70.21;71338.53;4969961;28;20394;-82
2023/10/28 07:13:19;;;;;;;15.87;6.63;;;;;;;-143.21;70.03;71346.47;4970613;28;20209;-82
2023/10/28 07:16:00;;;;;;;15.00;6.50;;;;;;;-143.21;70.17;71342.50;4969537;28;20233;-82
2023/10/28 07:18:27;;;;;;;13.05;6.75;;;;;;;-143.21;69.84;71340.53;4976543;28;20208;-82
2023/10/28 07:20:56;;;;;;;19.73;6.90;;;;;;;-143.21;69.57;71324.66;4969351;28;20291;-83
2023/10/28 07:23:26;;;;;;;15.85;7.15;;;;;;;-143.21;69.18;71322.69;4971886;28;20675;-82
2023/10/28 07:25:53;;;;;;;17.27;6.60;;;;;;;-143.21;69.35;71324.66;4964402;28;20295;-82
2023/10/28 07:28:21;;;;;;;21.83;7.50;;;;;;;-143.21;69.35;71316.75;4966192;28;20594;-82
2023/10/28 07:30:50;;;;;;;16.52;7.47;;;;;;;-143.21;69.23;71314.75;4977089;28;20242;-81
2023/10/28 07:33:19;;;;;;;17.88;7.57;;;;;;;-143.21;68.99;71308.81;4971792;28;20214;-83
2023/10/28 07:35:47;;;;;;;15.45;7.55;;;;;;;-143.21;69.29;71308.81;4967711;28;20232;-87
2023/10/28 07:38:16;;;;;;;12.45;6.68;;;;;;;-143.21;69.08;71308.81;4977712;28;20263;-87
2023/10/28 07:40:44;;;;;;;13.68;6.35;;;;;;;-143.21;69.02;71306.81;4970025;28;20213;-86
2023/10/28 07:43:18;;;;;;;19.55;7.00;;;;;;;-143.21;68.88;71304.84;4985681;28;20220;-91
2023/10/28 07:45:46;;;;;;;18.85;6.60;;;;;;;-143.21;68.00;71288.97;4972291;28;20533;-89
2023/10/28 07:48:14;;;;;;;18.02;7.30;;;;;;;-143.21;68.12;71288.97;4981604;28;20288;-91
2023/10/28 07:50:42;;;;;;;21.23;7.07;;;;;;;-143.21;68.19;71275.09;4982380;28;20243;-94
2023/10/28 07:53:09;;;;;;;14.63;7.15;;;;;;;-143.21;67.72;71273.13;4974416;28;20217;-91
2023/10/28 07:55:58;;;;;;;15.30;7.00;;;;;;;-143.21;67.58;71255.28;4966018;28;20341;-90
2023/10/28 07:58:26;;;;;;;14.65;6.85;;;;;;;-143.21;67.15;71253.28;4972716;28;20204;-88
2023/10/28 08:00:52;;;;;;;14.98;6.70;;;;;;;-143.21;66.95;71253.28;4983029;28;20209;-90
2023/10/28 08:03:19;;;;;;;14.75;6.40;;;;;;;-143.21;66.56;71241.41;4977506;28;20220;-89
2023/10/28 08:05:46;;;;;;;15.35;5.80;;;;;;;-143.21;65.98;71239.41;4983148;28;20211;-91
2023/10/28 08:08:13;;;;;;;21.25;6.97;;;;;;;-143.21;65.72;71239.41;4982342;28;20649;-91
2023/10/28 08:10:40;;;;;;;11.00;5.43;;;;;;;-143.21;65.44;71223.56;4974428;28;20216;-86
2023/10/28 08:13:09;;;;;;;11.15;5.68;;;;;;;-143.21;65.46;71221.56;4986944;28;20208;-87
2023/10/28 08:15:36;;;;;;;14.77;5.82;;;;;;;-143.21;65.15;71213.66;4979307;28;20278;-87
2023/10/28 08:18:03;;;;;;;12.45;4.95;;;;;;;-143.21;65.18;71203.72;4976288;28;20666;-84
2023/10/28 08:20:30;;;;;;;10.40;5.00;;;;;;;-143.21;65.19;71193.81;4983470;28;20326;-86
2023/10/28 08:22:56;;;;;;;14.82;4.80;;;;;;;-143.21;64.95;71191.84;4982384;28;20682;-85
2023/10/28 08:25:23;;;;;;;11.48;4.90;;;;;;;-143.21;64.33;71181.94;4978665;28;20577;-85
2023/10/28 08:27:50;;;;;;;10.50;5.15;;;;;;;-143.21;64.36;71177.97;4979767;28;20792;-87
2023/10/28 08:30:20;;;;;;;11.00;4.70;;;;;;;-143.21;64.25;71170.03;4973103;28;20251;-87
2023/10/28 08:32:47;;;;;;;8.02;4.60;;;;;;;-143.21;64.12;71162.09;4979688;28;20663;-86
2023/10/28 08:35:14;;;;;;;16.85;5.28;;;;;;;-143.21;63.74;71156.16;4974019;28;20605;-87
2023/10/28 08:37:41;;;;;;;10.52;5.60;;;;;;;-143.21;63.72;71146.25;4978880;28;20625;-84
2023/10/28 08:40:12;;;;;;;12.23;5.72;;;;;;;-143.21;63.38;71130.38;4953794;28;20303;-89
2023/10/28 08:42:40;;;;;;;19.75;5.85;;;;;;;-143.21;62.79;71122.44;4982193;28;20209;-89
2023/10/28 08:45:09;;;;;;;10.98;5.10;;;;;;;-143.21;62.62;71098.66;4981174;28;20211;-89
2023/10/28 08:47:41;;;;;;;12.38;5.03;;;;;;;-143.21;61.80;71082.81;4978480;28;20642;-86
2023/10/28 08:50:09;;;;;;;18.67;5.15;;;;;;;-143.21;59.50;71039.19;4976595;28;20212;-83
2023/10/28 08:52:38;;;;;;;11.98;4.40;;;;;;;-143.21;58.98;70979.72;4987574;28;20586;-86
2023/10/28 08:55:07;;;;;;;13.23;3.88;;;;;;;-143.21;57.25;70920.25;4982249;28;20315;-87
2023/10/28 08:57:35;;;;;;;12.02;3.67;;;;;;;-143.21;54.31;70872.66;4980080;28;20215;-86
2023/10/28 09:00:14;;;;;;;6.25;3.13;;;;;;;-143.21;53.77;70805.28;4977576;28;20212;-86
2023/10/28 09:02:45;;;;;;;9.85;3.50;;;;;;;-143.21;51.70;70737.88;4975857;28;20227;-88
2023/10/28 09:05:13;;;;;;;11.50;3.55;;;;;;;-143.21;49.80;70672.47;4973914;28;20588;-86
2023/10/28 09:07:39;;;;;;;8.75;3.63;;;;;;;-143.21;48.17;70618.94;4976993;28;20303;-87
2023/10/28 09:10:07;;;;;;;13.00;3.40;;;;;;;-143.21;47.82;70579.31;4962406;28;20604;-88
2023/10/28 09:12:34;;;;;;;14.18;3.67;;;;;;;-143.21;46.79;70533.72;4977609;28;20748;-88
2023/10/28 09:15:03;;;;;;;11.32;3.72;;;;;;;-143.21;45.82;70498.03;4977170;28;20841;-88
2023/10/28 09:17:30;;;;;;;14.23;3.75;;;;;;;-143.21;44.91;70434.59;4971730;28;20377;-88
2023/10/28 09:20:00;;;;;;;6.75;2.75;;;;;;;-143.21;43.33;70396.94;4970096;28;20198;-88
2023/10/28 09:22:27;;;;;;;10.02;2.70;;;;;;;-143.21;42.59;70391.00;4986274;28;20208;-88
2023/10/28 09:24:54;;;;;;;5.30;2.30;;;;;;;-143.21;40.46;70377.13;4982315;28;20204;-84
2023/10/28 09:27:22;;;;;;;9.30;2.30;;;;;;;-143.21;40.90;70385.06;4975122;28;20201;-86
2023/10/28 09:29:49;;;;;;;8.20;1.88;;;;;;;-143.21;40.58;70377.13;4977772;28;20653;-84
2023/10/28 09:32:18;;;;;;;6.78;1.98;;;;;;;-143.21;40.07;70353.34;4971508;28;20211;-83
2023/10/28 09:34:45;;;;;;;5.40;1.77;;;;;;;-143.21;39.87;70325.59;4975293;28;20600;-87
2023/10/28 09:37:14;;;;;;;7.47;1.92;;;;;;;-143.21;39.28;70291.91;4985786;28;20220;-83
2023/10/28 09:39:47;;;;;;;7.20;2.40;;;;;;;-143.21;38.08;70254.25;4975825;28;20211;-86
2023/10/28 09:42:16;;;;;;;6.97;2.05;;;;;;;-143.21;37.74;70208.66;4973523;28;20232;-84
2023/10/28 09:44:44;;;;;;;7.72;1.98;;;;;;;-143.21;37.08;70165.06;4976462;28;20208;-82
2023/10/28 09:47:19;;;;;;;6.63;2.20;;;;;;;-143.21;36.31;70135.31;4972926;28;20205;-85
2023/10/28 09:49:50;;;;;;;6.03;2.10;;;;;;;-143.21;35.87;70103.63;4974295;28;20215;-82
2023/10/28 09:52:20;;;;;;;6.78;2.15;;;;;;;-143.21;35.53;70060.03;4984517;28;20642;-87
2023/10/28 09:54:50;;;;;;;5.63;1.90;;;;;;;-143.21;35.01;70081.81;4973751;28;20204;-82
2023/10/28 09:57:17;;;;;;;4.40;2.00;;;;;;;-143.21;34.73;70135.31;4972867;28;20299;-85
2023/10/28 09:59:46;;;;;;;8.55;1.98;;;;;;;-143.21;35.08;70184.88;4981193;28;20219;-85
2023/10/28 10:02:34;;;;;;;5.25;1.85;;;;;;;-143.21;35.13;70147.22;4969874;28;20240;-86
2023/10/28 10:05:06;;;;;;;10.05;2.03;;;;;;;-143.21;35.25;70117.50;4967243;28;20212;-87
2023/10/28 10:07:35;;;;;;;10.32;2.15;;;;;;;-143.21;34.50;70139.28;4981648;28;20244;-82
2023/10/28 10:10:13;;;;;;;4.15;1.58;;;;;;;-143.21;35.70;70202.72;4974357;28;20205;-81
2023/10/28 10:12:43;;;;;;;6.55;1.75;;;;;;;-143.21;35.75;70161.09;4975759;28;20736;-86
2023/10/28 10:15:14;;;;;;;6.15;2.13;;;;;;;-143.21;34.61;70105.59;4975387;28;20247;-81
2023/10/28 10:17:55;;;;;;;6.65;1.70;;;;;;;-143.21;33.77;70046.16;4974200;28;20582;-85
2023/10/28 10:20:26;;;;;;;7.22;1.88;;;;;;;-143.21;33.42;70022.38;4971400;28;20232;-86
2023/10/28 10:23:02;;;;;;;7.57;1.60;;;;;;;-143.21;33.25;70063.97;4977905;28;20204;-85
2023/10/28 10:25:33;;;;;;;6.00;1.80;;;;;;;-143.21;33.35;70093.72;4978689;28;20200;-86
2023/10/28 10:28:23;;;;;;;7.72;1.90;;;;;;;-143.21;33.93;70111.53;4978811;28;20609;-86
2023/10/28 10:30:51;;;;;;;5.43;1.95;;;;;;;-143.21;33.72;70105.59;4966272;28;20306;-85
2023/10/28 10:33:25;;;;;;;5.72;1.90;;;;;;;-143.21;33.93;70121.47;4975579;28;20270;-84
2023/10/28 10:35:52;;;;;;;7.65;1.77;;;;;;;-143.21;33.78;70085.78;4976785;28;20274;-84
2023/10/28 10:38:28;;;;;;;10.18;2.10;;;;;;;-143.21;33.73;70093.72;4976424;28;20682;-86
2023/10/28 10:40:58;;;;;;;9.02;2.05;;;;;;;-143.21;34.11;70062.00;4971597;28;20208;-85
2023/10/28 10:43:30;;;;;;;7.22;2.00;;;;;;;-143.21;33.40;70008.50;4972566;28;20207;-89
2023/10/28 10:45:57;;;;;;;11.85;2.00;;;;;;;-143.21;33.28;69968.84;4963780;28;20337;-88
2023/10/28 10:48:26;;;;;;;9.90;2.08;;;;;;;-143.21;32.93;69941.13;4974985;28;20201;-88
2023/10/28 10:50:53;;;;;;;7.45;2.47;;;;;;;-143.21;33.01;69943.09;4981038;28;20228;-89
2023/10/28 10:53:22;;;;;;;8.05;1.80;;;;;;;-143.21;33.41;69968.84;4975465;28;20207;-81
2023/10/28 10:55:49;;;;;;;4.95;1.50;;;;;;;-143.21;33.33;70002.53;4968249;28;20246;-81
2023/10/28 10:58:16;;;;;;;5.20;1.80;;;;;;;-143.21;33.72;69990.66;4964919;28;20216;-82
2023/10/28 11:00:51;;;;;;;5.93;2.00;;;;;;;-143.21;34.07;70010.47;4968608;28;20209;-81
2023/10/28 11:03:18;;;;;;;6.50;2.03;;;;;;;-143.21;34.29;70004.53;4973918;28;20231;-81
2023/10/28 11:05:46;;;;;;;11.68;2.30;;;;;;;-143.21;33.69;69990.66;4974542;28;20204;-83
2023/10/28 11:08:14;;;;;;;6.60;2.05;;;;;;;-143.21;33.37;69984.72;4976401;28;20873;-80
2023/10/28 11:10:45;;;;;;;5.43;2.17;;;;;;;-143.21;34.01;69992.63;4967703;28;20292;-83
2023/10/28 11:13:13;;;;;;;5.03;2.00;;;;;;;-143.21;34.22;70028.31;4978483;28;20205;-85
2023/10/28 11:15:39;;;;;;;5.85;1.70;;;;;;;-143.21;34.08;70018.41;4987042;28;20275;-85
2023/10/28 11:18:07;;;;;;;5.20;1.70;;;;;;;-143.21;34.09;70010.47;4980330;28;20219;-84